Pleven, Bulgaria
Current Conditions -  °F | °C
As of 9:00 PM on Wednesday 26 Nov 2014 (Local Time) from LBGO Reporting Station
Overcast Overcast  
Wind Chill: 25°   Ceiling: 2300
Heat Index: 30°   Visibility: 6mi
Dew Point: 25°   Wind: 4mph
Humidity: 80%   Direction: 80°E
Pressure: 30.33"   Gusts: NA
Location:  43.42°N, 24.62°E
Report Text: LBGO 261800Z 08002MPS 9999 OVC023 M01/M04 Q1027 NOSIG
Loading
Personal Weather Stations






























Interactive Weather Map New forecast layout! Learn more

10-Day Weather Forecast

Advertisements
Track Severe Weather on mobile